Aberdare, United Kingdom
Current Conditions -  °F | °C
As of 7:50 AM on Thursday 18 Dec 2014 (Local Time) from EGDX Reporting Station
Rain Showers Rain Showers  
Wind Chill: 52°   Ceiling: 200
Heat Index: 52°   Visibility: 5mi
Dew Point: 52°   Wind: 24mph
Humidity: 100%   Direction: 250°WSW
Pressure: 29.85"   Gusts: NA
Location:  51.71°N, 3.45°W
Report Text: EGDX 180750Z AUTO 25021KT 8000 -SHRA OVC002/// 11/11 Q1011
Loading
Personal Weather Stations






























Interactive Weather Map New forecast layout! Learn more

10-Day Weather Forecast

Advertisements
Track Severe Weather on mobile